createdAt,value
2023-02-19T00:01:45.829Z,84.46
2023-02-19T00:04:15.484Z,84.40
2023-02-19T00:06:44.508Z,84.34
2023-02-19T00:09:13.254Z,84.18
2023-02-19T00:11:43.074Z,84.17
2023-02-19T00:14:15.513Z,84.62
2023-02-19T00:16:43.281Z,84.41
2023-02-19T00:19:15.117Z,84.43
2023-02-19T00:21:43.006Z,84.30
2023-02-19T00:24:13.420Z,84.37
2023-02-19T00:26:44.275Z,84.45
2023-02-19T00:29:14.808Z,84.46
2023-02-19T00:31:43.519Z,84.45
2023-02-19T00:34:12.204Z,84.56
2023-02-19T00:36:41.871Z,84.60
2023-02-19T00:39:13.009Z,85.05
2023-02-19T00:41:42.370Z,85.19
2023-02-19T00:44:12.431Z,85.19
2023-02-19T00:46:43.222Z,85.33
2023-02-19T00:49:17.316Z,85.49
2023-02-19T00:51:45.341Z,85.64
2023-02-19T00:54:13.745Z,85.57
2023-02-19T00:56:43.052Z,85.84
2023-02-19T00:59:10.949Z,85.72
2023-02-19T01:01:39.387Z,85.38
2023-02-19T01:04:07.467Z,85.62
2023-02-19T01:06:35.678Z,85.38
2023-02-19T01:09:03.882Z,85.68
2023-02-19T01:11:31.816Z,85.69
2023-02-19T01:14:02.237Z,85.54
2023-02-19T01:16:31.027Z,85.39
2023-02-19T01:19:00.038Z,85.48
2023-02-19T01:21:29.476Z,85.59
2023-02-19T01:23:58.825Z,85.22
2023-02-19T01:26:29.379Z,85.29
2023-02-19T01:28:57.238Z,85.89
2023-02-19T01:31:26.548Z,85.82
2023-02-19T01:33:56.210Z,86.04
2023-02-19T01:36:25.454Z,85.73
2023-02-19T01:38:53.456Z,85.47
2023-02-19T01:41:24.027Z,85.31
2023-02-19T01:43:58.610Z,85.60
2023-02-19T01:46:29.024Z,85.54
2023-02-19T01:48:58.996Z,85.32
2023-02-19T01:51:27.794Z,85.73
2023-02-19T01:54:00.096Z,85.82
2023-02-19T01:56:29.562Z,85.84
2023-02-19T01:58:58.159Z,86.31
2023-02-19T02:01:26.162Z,85.91
2023-02-19T02:03:55.663Z,86.12
2023-02-19T02:06:26.929Z,86.85
2023-02-19T02:09:14.545Z,86.51
2023-02-19T02:11:48.123Z,86.53
2023-02-19T02:14:17.811Z,86.54
2023-02-19T02:16:54.282Z,86.76
2023-02-19T02:19:35.725Z,86.40
2023-02-19T02:22:12.630Z,86.95
2023-02-19T02:28:42.545Z,87.08
2023-02-19T02:31:15.915Z,87.20
2023-02-19T02:33:54.546Z,87.30
2023-02-19T02:36:28.108Z,87.43
2023-02-19T02:38:58.472Z,87.97
2023-02-19T02:41:27.265Z,88.09
2023-02-19T02:43:55.430Z,88.44
2023-02-19T02:46:31.380Z,87.79
2023-02-19T02:49:06.373Z,88.33
2023-02-19T02:51:40.053Z,88.22
2023-02-19T02:54:32.592Z,88.21
2023-02-19T02:57:04.817Z,88.51
2023-02-19T02:59:40.386Z,87.96
2023-02-19T03:02:14.557Z,88.09
2023-02-19T03:05:08.620Z,87.93
2023-02-19T03:07:39.973Z,88.18
2023-02-19T03:10:11.836Z,87.71
2023-02-19T03:12:59.189Z,88.31
2023-02-19T03:15:50.477Z,88.32
2023-02-19T03:18:40.313Z,89.47
2023-02-19T03:21:09.779Z,89.74
2023-02-19T03:23:57.452Z,90.86
2023-02-19T03:26:27.416Z,90.93
2023-02-19T03:29:15.059Z,90.96
2023-02-19T03:31:47.097Z,91.65
2023-02-19T03:34:24.706Z,91.12
2023-02-19T03:36:59.380Z,91.31
2023-02-19T03:39:28.004Z,91.42
2023-02-19T03:42:02.834Z,90.93
2023-02-19T03:44:42.120Z,92.27
2023-02-19T03:47:17.977Z,92.37
2023-02-19T03:49:51.089Z,92.58
2023-02-19T03:52:29.243Z,92.93
2023-02-19T03:55:04.225Z,93.05
2023-02-19T03:57:38.976Z,93.24
2023-02-19T04:00:12.707Z,92.84
2023-02-19T04:02:44.477Z,92.80
2023-02-19T04:05:17.807Z,92.15
2023-02-19T04:07:49.946Z,91.81
2023-02-19T04:10:22.205Z,91.97
2023-02-19T04:12:58.673Z,92.12
2023-02-19T04:15:30.618Z,91.70
2023-02-19T04:18:01.505Z,91.71
2023-02-19T04:20:35.376Z,91.74
2023-02-19T04:23:03.734Z,91.25
2023-02-19T04:25:32.260Z,90.99
2023-02-19T04:28:00.225Z,91.00
2023-02-19T04:30:28.239Z,91.60
2023-02-19T04:32:56.243Z,91.50
2023-02-19T04:35:24.140Z,91.00
2023-02-19T04:37:53.338Z,92.17
2023-02-19T04:40:21.240Z,91.42
2023-02-19T04:42:49.133Z,91.52
2023-02-19T04:45:17.050Z,91.66
2023-02-19T04:47:44.906Z,90.98
2023-02-19T04:50:12.846Z,90.99
2023-02-19T04:52:40.742Z,91.32
2023-02-19T04:55:11.055Z,92.18
2023-02-19T04:57:38.931Z,92.01
2023-02-19T05:00:08.525Z,91.97
2023-02-19T05:02:36.755Z,92.24
2023-02-19T05:05:04.790Z,91.72
2023-02-19T05:07:32.706Z,91.93
2023-02-19T05:10:00.576Z,91.77
2023-02-19T05:12:31.274Z,90.93
2023-02-19T05:14:59.175Z,91.07
2023-02-19T05:17:27.076Z,90.55
2023-02-19T05:19:54.978Z,91.35
2023-02-19T05:22:22.982Z,90.28
2023-02-19T05:24:50.926Z,90.59
2023-02-19T05:27:18.817Z,90.25
2023-02-19T05:29:48.178Z,90.59
2023-02-19T05:32:16.142Z,90.09
2023-02-19T05:34:44.157Z,90.65
2023-02-19T05:37:12.026Z,89.59
2023-02-19T05:39:39.954Z,88.39
2023-02-19T05:42:07.806Z,88.18
2023-02-19T05:44:35.765Z,87.77
2023-02-19T05:47:05.107Z,87.93
2023-02-19T05:49:33.162Z,87.98
2023-02-19T05:52:01.030Z,87.59
2023-02-19T05:54:29.582Z,86.87
2023-02-19T05:56:57.650Z,87.16
2023-02-19T05:59:27.013Z,87.69
2023-02-19T06:01:55.659Z,87.47
2023-02-19T06:04:24.871Z,87.47
2023-02-19T06:06:52.652Z,87.25
2023-02-19T06:09:20.468Z,86.87
2023-02-19T06:11:48.390Z,86.63
2023-02-19T06:14:16.298Z,87.14
2023-02-19T06:16:44.147Z,86.22
2023-02-19T06:19:12.073Z,85.56
2023-02-19T06:21:41.463Z,83.69
2023-02-19T06:24:10.912Z,84.18
2023-02-19T06:26:39.469Z,82.24
2023-02-19T06:29:07.378Z,82.30
2023-02-19T06:31:35.493Z,81.59
2023-02-19T06:34:05.285Z,81.69
2023-02-19T06:36:33.160Z,81.19
2023-02-19T06:39:02.942Z,80.95
2023-02-19T06:41:31.450Z,81.71
2023-02-19T06:43:59.512Z,81.00
2023-02-19T06:46:27.494Z,80.77
2023-02-19T06:48:55.441Z,80.20
2023-02-19T06:51:24.316Z,79.97
2023-02-19T06:53:52.264Z,80.22
2023-02-19T06:56:27.025Z,80.30
2023-02-19T06:58:56.358Z,81.53
2023-02-19T07:01:25.021Z,82.56
2023-02-19T07:03:53.658Z,83.00
2023-02-19T07:06:22.178Z,82.52
2023-02-19T07:08:50.444Z,81.88
2023-02-19T07:11:19.437Z,82.11
2023-02-19T07:13:48.914Z,81.85
2023-02-19T07:16:18.028Z,81.72
2023-02-19T07:18:46.526Z,81.60
2023-02-19T07:21:16.334Z,82.59
2023-02-19T07:23:45.687Z,83.13
2023-02-19T07:26:15.919Z,82.09
2023-02-19T07:28:44.632Z,82.14
2023-02-19T07:31:15.173Z,81.94
2023-02-19T07:33:44.117Z,81.37
2023-02-19T07:36:12.538Z,80.98
2023-02-19T07:38:40.643Z,81.43
2023-02-19T07:41:08.636Z,80.32
2023-02-19T07:43:38.473Z,80.70
2023-02-19T07:46:07.316Z,82.37
2023-02-19T07:48:37.141Z,82.63
2023-02-19T07:51:06.633Z,82.60
2023-02-19T07:53:35.820Z,81.90
2023-02-19T07:56:06.448Z,81.84
2023-02-19T07:58:34.954Z,82.19
2023-02-19T08:01:09.078Z,82.13
2023-02-19T08:03:37.990Z,81.08
2023-02-19T08:06:06.489Z,80.85
2023-02-19T08:08:34.376Z,80.59
2023-02-19T08:11:20.548Z,80.21
2023-02-19T08:13:50.336Z,79.24
2023-02-19T08:16:29.736Z,79.22
2023-02-19T08:19:06.315Z,81.16
2023-02-19T08:21:34.588Z,81.95
2023-02-19T08:24:02.481Z,83.21
2023-02-19T08:26:30.358Z,83.38
2023-02-19T08:28:58.986Z,84.75
2023-02-19T08:31:27.409Z,83.92
2023-02-19T08:33:55.864Z,83.69
2023-02-19T08:36:25.088Z,83.85
2023-02-19T08:38:53.526Z,83.08
2023-02-19T08:41:21.918Z,83.38
2023-02-19T08:43:50.619Z,82.47
2023-02-19T08:46:18.546Z,81.95
2023-02-19T08:48:46.462Z,82.09
2023-02-19T08:51:14.678Z,80.85
2023-02-19T08:53:44.041Z,80.19
2023-02-19T08:56:14.739Z,79.26
2023-02-19T08:58:43.492Z,78.24
2023-02-19T09:01:13.347Z,78.07
2023-02-19T09:03:42.159Z,77.59
2023-02-19T09:06:14.410Z,77.46
2023-02-19T09:08:42.340Z,77.70
2023-02-19T09:11:11.773Z,77.99
2023-02-19T09:13:39.886Z,77.41
2023-02-19T09:16:08.315Z,77.27
2023-02-19T09:18:36.486Z,77.05
2023-02-19T09:21:06.743Z,75.94
2023-02-19T09:23:35.913Z,75.62
2023-02-19T09:26:07.028Z,75.36
2023-02-19T09:28:37.236Z,74.72
2023-02-19T09:31:06.672Z,74.47
2023-02-19T09:33:34.775Z,75.04
2023-02-19T09:36:03.249Z,75.56
2023-02-19T09:38:31.546Z,75.01
2023-02-19T09:41:00.818Z,75.16
2023-02-19T09:43:30.450Z,73.99
2023-02-19T09:46:05.287Z,73.92
2023-02-19T09:48:33.481Z,73.61
2023-02-19T09:51:03.453Z,73.00
2023-02-19T09:53:40.329Z,74.13
2023-02-19T09:56:08.888Z,74.40
2023-02-19T09:58:44.993Z,74.19
2023-02-19T10:01:14.555Z,74.84
2023-02-19T10:03:47.030Z,75.27
2023-02-19T10:06:20.434Z,76.61
2023-02-19T10:08:50.743Z,76.63
2023-02-19T10:11:19.639Z,77.16
2023-02-19T10:13:50.795Z,77.03
2023-02-19T10:16:23.627Z,77.91
2023-02-19T10:18:51.837Z,78.16
2023-02-19T10:21:21.633Z,78.40
2023-02-19T10:23:54.460Z,78.12
2023-02-19T10:26:23.435Z,78.46
2023-02-19T10:28:51.387Z,78.14
2023-02-19T10:31:23.135Z,77.70
2023-02-19T10:33:52.981Z,76.95
2023-02-19T10:36:32.311Z,76.58
2023-02-19T10:39:02.202Z,75.80
2023-02-19T10:41:31.796Z,75.16
2023-02-19T10:44:06.518Z,74.02
2023-02-19T10:46:38.449Z,73.99
2023-02-19T10:49:16.994Z,72.58
2023-02-19T10:51:45.110Z,72.25
2023-02-19T10:54:19.961Z,72.71
2023-02-19T10:56:48.223Z,72.58
2023-02-19T10:59:23.335Z,72.20
2023-02-19T11:01:57.532Z,71.89
2023-02-19T11:04:26.703Z,71.02
2023-02-19T11:06:55.147Z,71.21
2023-02-19T11:09:29.281Z,70.84
2023-02-19T11:11:59.433Z,70.40
2023-02-19T11:14:30.329Z,70.28
2023-02-19T11:17:01.160Z,70.64
2023-02-19T11:19:37.667Z,69.98
2023-02-19T11:22:21.127Z,70.42
2023-02-19T11:24:50.714Z,70.47
2023-02-19T11:27:20.952Z,70.66
2023-02-19T11:29:49.016Z,70.25
2023-02-19T11:32:31.667Z,70.45
2023-02-19T11:35:17.771Z,70.35
2023-02-19T11:37:57.730Z,70.30
2023-02-19T11:40:38.892Z,70.62
2023-02-19T11:43:21.867Z,70.29
2023-02-19T11:45:54.432Z,70.04
2023-02-19T11:48:33.833Z,69.95
2023-02-19T11:51:20.084Z,70.51
2023-02-19T11:53:53.790Z,70.42
2023-02-19T11:56:27.898Z,69.78
2023-02-19T11:59:01.289Z,69.78
2023-02-19T12:01:53.737Z,69.85
2023-02-19T12:04:54.114Z,69.71
2023-02-19T12:07:37.015Z,70.07
2023-02-19T12:10:16.570Z,70.09
2023-02-19T12:13:00.976Z,70.14
2023-02-19T12:15:39.342Z,69.55
2023-02-19T12:18:34.439Z,69.01
2023-02-19T12:21:17.383Z,69.39
2023-02-19T12:24:01.396Z,69.13
2023-02-19T12:26:31.819Z,68.70
2023-02-19T12:29:19.445Z,68.00
2023-02-19T12:32:03.955Z,67.64
2023-02-19T12:34:43.260Z,67.87
2023-02-19T12:37:27.433Z,68.33
2023-02-19T12:40:10.196Z,67.74
2023-02-19T12:42:51.895Z,67.79
2023-02-19T12:45:27.767Z,68.33
2023-02-19T12:48:02.167Z,66.81
2023-02-19T12:50:31.712Z,66.38
2023-02-19T12:53:09.201Z,66.43
2023-02-19T12:55:41.625Z,66.33
2023-02-19T12:58:16.684Z,66.43
2023-02-19T13:00:50.429Z,66.49
2023-02-19T13:03:23.840Z,66.28
2023-02-19T13:05:58.568Z,66.52
2023-02-19T13:08:34.121Z,66.25
2023-02-19T13:11:10.149Z,65.66
2023-02-19T13:13:44.785Z,66.09
2023-02-19T13:16:18.762Z,65.73
2023-02-19T13:18:50.000Z,66.00
2023-02-19T13:21:35.690Z,65.39
2023-02-19T13:24:10.803Z,64.85
2023-02-19T13:26:55.340Z,64.85
2023-02-19T13:29:38.207Z,65.18
2023-02-19T13:32:35.420Z,65.81
2023-02-19T13:35:20.377Z,65.11
2023-02-19T13:37:49.360Z,65.02
2023-02-19T13:40:31.379Z,65.42
2023-02-19T13:43:01.493Z,65.53
2023-02-19T13:45:35.363Z,65.29
2023-02-19T13:48:15.286Z,65.32
2023-02-19T13:50:43.285Z,65.08
2023-02-19T13:53:48.525Z,65.36
2023-02-19T13:56:42.096Z,65.89
2023-02-19T13:59:36.712Z,65.72
2023-02-19T14:02:26.721Z,66.45
2023-02-19T14:04:57.157Z,65.73
2023-02-19T14:07:54.737Z,65.69
2023-02-19T14:10:57.689Z,65.90
2023-02-19T14:14:06.694Z,66.15
2023-02-19T14:17:08.435Z,66.42
2023-02-19T14:19:52.765Z,64.84
2023-02-19T14:23:02.539Z,64.99
2023-02-19T14:25:38.242Z,65.53
2023-02-19T14:28:14.577Z,65.52
2023-02-19T14:30:49.748Z,66.08
2023-02-19T14:33:20.500Z,65.74
2023-02-19T14:35:52.198Z,66.15
2023-02-19T14:38:23.649Z,65.85
2023-02-19T14:40:53.117Z,65.87
2023-02-19T14:43:24.388Z,66.81
2023-02-19T14:45:57.399Z,66.28
2023-02-19T14:48:29.998Z,66.67
2023-02-19T14:51:04.441Z,66.46
2023-02-19T14:53:39.347Z,67.31
2023-02-19T14:56:17.437Z,66.90
2023-02-19T14:58:45.355Z,67.38
2023-02-19T15:01:28.119Z,68.32
2023-02-19T15:03:56.655Z,68.27
2023-02-19T15:06:24.831Z,68.73
2023-02-19T15:08:54.772Z,69.16
2023-02-19T15:11:24.567Z,69.19
2023-02-19T15:13:56.425Z,68.91
2023-02-19T15:16:27.875Z,69.10
2023-02-19T15:18:58.327Z,69.58
2023-02-19T15:21:29.212Z,69.93
2023-02-19T15:23:58.823Z,70.28
2023-02-19T15:26:34.294Z,70.27
2023-02-19T15:29:04.126Z,70.54
2023-02-19T15:31:33.423Z,70.81
2023-02-19T15:34:01.541Z,70.67
2023-02-19T15:36:32.067Z,70.61
2023-02-19T15:39:03.315Z,70.98
2023-02-19T15:41:35.745Z,70.47
2023-02-19T15:44:14.936Z,71.11
2023-02-19T15:46:45.568Z,71.44
2023-02-19T15:49:19.859Z,72.32
2023-02-19T15:51:55.304Z,72.77
2023-02-19T15:54:28.660Z,73.92
2023-02-19T15:57:03.102Z,73.96
2023-02-19T15:59:36.801Z,74.03
2023-02-19T16:02:06.161Z,73.68
2023-02-19T16:04:35.310Z,73.50
2023-02-19T16:07:04.434Z,73.67
2023-02-19T16:09:34.747Z,73.62
2023-02-19T16:12:03.951Z,75.27
2023-02-19T16:14:34.150Z,74.96
2023-02-19T16:17:14.704Z,74.68
2023-02-19T16:19:48.052Z,75.65
2023-02-19T16:22:19.819Z,75.31
2023-02-19T16:24:50.406Z,75.66
2023-02-19T16:27:31.790Z,75.65
2023-02-19T16:30:01.828Z,76.20
2023-02-19T16:32:31.155Z,77.00
2023-02-19T16:34:59.116Z,77.57
2023-02-19T16:37:35.955Z,79.74
2023-02-19T16:40:55.924Z,79.87
2023-02-19T16:43:31.314Z,80.27
2023-02-19T16:46:00.941Z,79.84
2023-02-19T16:48:30.172Z,80.24
2023-02-19T16:50:59.523Z,80.60
2023-02-19T16:53:28.897Z,82.01
2023-02-19T16:55:56.820Z,81.47
2023-02-19T16:58:25.187Z,82.47
2023-02-19T17:00:53.360Z,82.58
2023-02-19T17:03:24.308Z,83.04
2023-02-19T17:05:54.218Z,82.12
2023-02-19T17:08:35.279Z,82.21
2023-02-19T17:11:05.431Z,82.98
2023-02-19T17:13:33.413Z,82.16
2023-02-19T17:16:01.976Z,81.83
2023-02-19T17:18:29.995Z,82.12
2023-02-19T17:21:03.245Z,82.06
2023-02-19T17:23:31.049Z,82.51
2023-02-19T17:25:58.899Z,82.05
2023-02-19T17:28:27.023Z,81.19
2023-02-19T17:30:55.161Z,81.26
2023-02-19T17:33:23.198Z,81.63
2023-02-19T17:35:51.118Z,81.07
2023-02-19T17:38:20.380Z,81.62
2023-02-19T17:40:48.189Z,81.35
2023-02-19T17:43:16.064Z,81.33
2023-02-19T17:45:43.909Z,79.98
2023-02-19T17:48:13.878Z,79.69
2023-02-19T17:50:42.576Z,79.19
2023-02-19T17:53:10.749Z,78.85
2023-02-19T17:55:40.383Z,78.95
2023-02-19T17:58:08.213Z,78.65
2023-02-19T18:00:36.921Z,79.06
2023-02-19T18:03:07.464Z,78.27
2023-02-19T18:05:35.687Z,78.12
2023-02-19T18:08:03.546Z,77.94
2023-02-19T18:10:31.569Z,78.07
2023-02-19T18:13:00.985Z,77.27
2023-02-19T18:15:29.117Z,78.38
2023-02-19T18:17:58.248Z,77.27
2023-02-19T18:20:28.026Z,77.51
2023-02-19T18:22:56.451Z,76.67
2023-02-19T18:25:24.837Z,77.20
2023-02-19T18:27:52.767Z,77.08
2023-02-19T18:30:23.838Z,76.60
2023-02-19T18:32:52.206Z,77.15
2023-02-19T18:35:21.390Z,77.14
2023-02-19T18:37:52.184Z,76.95
2023-02-19T18:40:21.006Z,76.40
2023-02-19T18:42:48.918Z,77.13
2023-02-19T18:45:18.057Z,76.52
2023-02-19T18:47:49.128Z,77.02
2023-02-19T18:50:17.864Z,77.50
2023-02-19T18:52:45.801Z,77.78
2023-02-19T18:55:13.787Z,77.72
2023-02-19T18:57:41.687Z,77.83
2023-02-19T19:00:10.461Z,77.67
2023-02-19T19:02:48.801Z,77.74
2023-02-19T19:05:22.707Z,77.70
2023-02-19T19:07:51.102Z,77.98
2023-02-19T19:10:19.531Z,78.87
2023-02-19T19:12:47.396Z,78.74
2023-02-19T19:15:18.063Z,78.86
2023-02-19T19:17:46.258Z,78.92
2023-02-19T19:20:14.599Z,78.94
2023-02-19T19:22:43.843Z,79.24
2023-02-19T19:25:11.987Z,78.32
2023-02-19T19:27:39.803Z,77.99
2023-02-19T19:30:08.876Z,78.04
2023-02-19T19:32:36.759Z,78.86
2023-02-19T19:35:04.826Z,78.36
2023-02-19T19:37:32.696Z,78.95
2023-02-19T19:40:03.785Z,78.58
2023-02-19T19:42:31.653Z,78.85
2023-02-19T19:44:59.598Z,78.85
2023-02-19T19:47:27.536Z,78.50
2023-02-19T19:49:55.464Z,78.20
2023-02-19T19:52:23.650Z,78.00
2023-02-19T19:54:54.011Z,78.41
2023-02-19T19:57:23.416Z,78.82
2023-02-19T19:59:52.283Z,78.62
2023-02-19T20:02:20.341Z,78.81
2023-02-19T20:04:48.298Z,79.07
2023-02-19T20:07:16.390Z,78.40
2023-02-19T20:09:48.039Z,78.93
2023-02-19T20:12:16.036Z,78.58
2023-02-19T20:14:47.118Z,78.80
2023-02-19T20:17:15.968Z,79.16
2023-02-19T20:19:43.813Z,78.87
2023-02-19T20:22:12.238Z,79.31
2023-02-19T20:24:40.127Z,79.09
2023-02-19T20:27:07.967Z,78.99
2023-02-19T20:29:36.314Z,78.56
2023-02-19T20:32:06.002Z,79.49
2023-02-19T20:34:34.024Z,78.85
2023-02-19T20:37:01.930Z,79.63
2023-02-19T20:39:29.963Z,79.48
2023-02-19T20:41:59.213Z,79.65
2023-02-19T20:44:28.444Z,80.00
2023-02-19T20:46:58.135Z,79.90
2023-02-19T20:49:29.809Z,79.38
2023-02-19T20:51:59.840Z,80.32
2023-02-19T20:54:29.720Z,79.45
2023-02-19T20:56:59.735Z,79.81
2023-02-19T20:59:30.916Z,79.49
2023-02-19T21:01:59.305Z,80.24
2023-02-19T21:04:28.702Z,79.85
2023-02-19T21:06:56.674Z,79.91
2023-02-19T21:09:24.841Z,80.36
2023-02-19T21:11:53.015Z,80.59
2023-02-19T21:14:21.224Z,80.06
2023-02-19T21:16:49.087Z,80.44
2023-02-19T21:19:17.105Z,80.87
2023-02-19T21:21:46.328Z,80.76
2023-02-19T21:24:15.468Z,81.32
2023-02-19T21:26:44.756Z,80.60
2023-02-19T21:29:18.578Z,80.92
2023-02-19T21:31:48.228Z,80.40
2023-02-19T21:34:18.720Z,80.70
2023-02-19T21:36:48.318Z,80.75
2023-02-19T21:39:18.016Z,81.43
2023-02-19T21:41:46.341Z,81.63
2023-02-19T21:44:14.748Z,81.55
2023-02-19T21:46:42.915Z,81.89
2023-02-19T21:49:11.706Z,82.25
2023-02-19T21:51:42.429Z,82.92
2023-02-19T21:54:16.323Z,82.98
2023-02-19T21:56:44.400Z,84.18
2023-02-19T21:59:12.472Z,83.86
2023-02-19T22:01:42.170Z,84.02
2023-02-19T22:04:12.214Z,84.17
2023-02-19T22:06:40.515Z,84.84
2023-02-19T22:09:09.194Z,84.60
2023-02-19T22:11:38.632Z,85.09
2023-02-19T22:14:07.354Z,85.07
2023-02-19T22:16:35.438Z,84.90
2023-02-19T22:19:03.392Z,85.03
2023-02-19T22:21:33.276Z,84.82
2023-02-19T22:24:02.867Z,84.10
2023-02-19T22:26:32.378Z,84.52
2023-02-19T22:29:05.849Z,85.36
2023-02-19T22:31:34.446Z,85.14
2023-02-19T22:34:02.732Z,84.55
2023-02-19T22:36:33.133Z,85.70
2023-02-19T22:39:01.606Z,85.44
2023-02-19T22:41:29.946Z,85.73
2023-02-19T22:43:59.458Z,84.64
2023-02-19T22:46:30.508Z,85.03
2023-02-19T22:48:59.405Z,85.14
2023-02-19T22:51:27.330Z,84.69
2023-02-19T22:53:57.492Z,86.00
2023-02-19T22:56:27.214Z,85.08
2023-02-19T22:58:56.376Z,85.10
2023-02-19T23:01:24.988Z,85.56
2023-02-19T23:03:56.126Z,86.28
2023-02-19T23:06:26.544Z,85.22
2023-02-19T23:08:55.297Z,86.00
2023-02-19T23:11:25.014Z,86.69
2023-02-19T23:13:53.380Z,85.61
2023-02-19T23:16:21.706Z,86.76
2023-02-19T23:18:49.580Z,86.52
2023-02-19T23:21:20.281Z,85.81
2023-02-19T23:23:48.171Z,86.05
2023-02-19T23:26:17.200Z,85.79
2023-02-19T23:28:45.842Z,85.90
2023-02-19T23:31:15.136Z,86.98
2023-02-19T23:33:44.044Z,86.01
2023-02-19T23:36:13.021Z,85.60
2023-02-19T23:38:45.032Z,86.08
2023-02-19T23:41:14.478Z,85.88
2023-02-19T23:43:42.617Z,85.66
2023-02-19T23:46:14.396Z,85.58
2023-02-19T23:48:42.391Z,85.78
2023-02-19T23:51:10.293Z,85.62
2023-02-19T23:53:38.100Z,85.43
2023-02-19T23:56:08.195Z,86.40
2023-02-19T23:58:36.089Z,85.92
